sensor_id;sensor_type;location;lat;lon;timestamp;temperature;humidity
42145;DHT22;27813;43.516;11.890;2023-09-19T04:40:42;17.00;82.30
42145;DHT22;27813;43.516;11.890;2023-09-19T04:45:17;17.10;82.20
42145;DHT22;27813;43.516;11.890;2023-09-19T05:04:40;17.50;81.80
42145;DHT22;27813;43.516;11.890;2023-09-19T05:18:58;17.90;81.50
42145;DHT22;27813;43.516;11.890;2023-09-19T05:24:14;18.00;81.40
42145;DHT22;27813;43.516;11.890;2023-09-19T05:28:47;18.20;80.90
42145;DHT22;27813;43.516;11.890;2023-09-19T05:33:25;18.30;80.90
42145;DHT22;27813;43.516;11.890;2023-09-19T05:52:12;18.70;80.60
42145;DHT22;27813;43.516;11.890;2023-09-19T06:01:15;19.00;80.30
42145;DHT22;27813;43.516;11.890;2023-09-19T06:05:20;19.20;80.20
42145;DHT22;27813;43.516;11.890;2023-09-19T06:09:24;19.30;80.10
42145;DHT22;27813;43.516;11.890;2023-09-19T06:13:28;19.40;80.00
42145;DHT22;27813;43.516;11.890;2023-09-19T06:17:32;19.60;80.00
42145;DHT22;27813;43.516;11.890;2023-09-19T06:21:36;19.80;79.90
42145;DHT22;27813;43.516;11.890;2023-09-19T06:25:43;20.00;79.60
42145;DHT22;27813;43.516;11.890;2023-09-19T06:30:13;20.10;79.40
42145;DHT22;27813;43.516;11.890;2023-09-19T06:34:23;20.30;79.30
42145;DHT22;27813;43.516;11.890;2023-09-19T06:38:27;20.50;79.00
42145;DHT22;27813;43.516;11.890;2023-09-19T06:42:32;20.70;78.70
42145;DHT22;27813;43.516;11.890;2023-09-19T06:46:41;20.90;78.30
42145;DHT22;27813;43.516;11.890;2023-09-19T06:50:47;21.00;78.10
42145;DHT22;27813;43.516;11.890;2023-09-19T06:54:56;21.00;78.00
42145;DHT22;27813;43.516;11.890;2023-09-19T06:59:26;21.10;77.90
42145;DHT22;27813;43.516;11.890;2023-09-19T07:03:30;21.50;77.60
42145;DHT22;27813;43.516;11.890;2023-09-19T07:07:42;21.70;77.10
42145;DHT22;27813;43.516;11.890;2023-09-19T07:11:50;21.80;76.70
42145;DHT22;27813;43.516;11.890;2023-09-19T07:15:54;21.90;76.60
42145;DHT22;27813;43.516;11.890;2023-09-19T07:19:59;22.00;76.20
42145;DHT22;27813;43.516;11.890;2023-09-19T07:24:03;21.80;76.30
42145;DHT22;27813;43.516;11.890;2023-09-19T07:28:07;21.70;76.60
42145;DHT22;27813;43.516;11.890;2023-09-19T07:32:11;21.70;76.80
42145;DHT22;27813;43.516;11.890;2023-09-19T07:36:15;21.90;76.60
42145;DHT22;27813;43.516;11.890;2023-09-19T07:40:19;22.00;76.50
42145;DHT22;27813;43.516;11.890;2023-09-19T07:44:27;22.10;76.30
42145;DHT22;27813;43.516;11.890;2023-09-19T07:48:31;22.20;76.10
42145;DHT22;27813;43.516;11.890;2023-09-19T07:52:35;22.20;76.00
42145;DHT22;27813;43.516;11.890;2023-09-19T07:56:39;22.30;75.90
42145;DHT22;27813;43.516;11.890;2023-09-19T08:00:46;22.30;75.80
42145;DHT22;27813;43.516;11.890;2023-09-19T08:04:50;22.20;75.80
42145;DHT22;27813;43.516;11.890;2023-09-19T08:08:55;22.10;75.90
42145;DHT22;27813;43.516;11.890;2023-09-19T08:13:00;22.10;76.00
42145;DHT22;27813;43.516;11.890;2023-09-19T08:17:09;22.10;76.00
42145;DHT22;27813;43.516;11.890;2023-09-19T08:21:13;22.30;75.80
42145;DHT22;27813;43.516;11.890;2023-09-19T08:25:20;22.40;75.60
42145;DHT22;27813;43.516;11.890;2023-09-19T08:29:32;22.50;75.30
42145;DHT22;27813;43.516;11.890;2023-09-19T08:33:37;22.70;75.00
42145;DHT22;27813;43.516;11.890;2023-09-19T08:37:45;22.90;74.80
42145;DHT22;27813;43.516;11.890;2023-09-19T08:41:49;23.00;74.60
42145;DHT22;27813;43.516;11.890;2023-09-19T08:46:15;23.20;74.40
42145;DHT22;27813;43.516;11.890;2023-09-19T08:50:28;23.30;74.20
42145;DHT22;27813;43.516;11.890;2023-09-19T08:54:37;23.50;74.10
42145;DHT22;27813;43.516;11.890;2023-09-19T08:58:59;23.50;74.00
42145;DHT22;27813;43.516;11.890;2023-09-19T09:03:05;23.70;73.70
42145;DHT22;27813;43.516;11.890;2023-09-19T09:07:17;23.80;73.50
42145;DHT22;27813;43.516;11.890;2023-09-19T09:11:22;24.00;73.20
42145;DHT22;27813;43.516;11.890;2023-09-19T09:15:36;24.10;72.90
42145;DHT22;27813;43.516;11.890;2023-09-19T09:19:51;24.20;72.50
42145;DHT22;27813;43.516;11.890;2023-09-19T09:28:25;24.50;71.90
42145;DHT22;27813;43.516;11.890;2023-09-19T09:32:36;24.60;71.40
42145;DHT22;27813;43.516;11.890;2023-09-19T09:37:13;24.70;71.10
42145;DHT22;27813;43.516;11.890;2023-09-19T09:41:36;24.90;70.80
42145;DHT22;27813;43.516;11.890;2023-09-19T09:45:44;25.00;70.50
42145;DHT22;27813;43.516;11.890;2023-09-19T09:49:52;25.20;70.10
42145;DHT22;27813;43.516;11.890;2023-09-19T09:54:14;25.50;69.50
42145;DHT22;27813;43.516;11.890;2023-09-19T09:58:21;25.80;68.90
42145;DHT22;27813;43.516;11.890;2023-09-19T10:02:36;26.10;68.00
42145;DHT22;27813;43.516;11.890;2023-09-19T10:06:41;26.40;67.40
42145;DHT22;27813;43.516;11.890;2023-09-19T10:10:51;26.70;66.50
42145;DHT22;27813;43.516;11.890;2023-09-19T10:15:09;26.80;65.80
42145;DHT22;27813;43.516;11.890;2023-09-19T10:19:29;27.00;64.70
42145;DHT22;27813;43.516;11.890;2023-09-19T10:23:38;27.30;64.20
42145;DHT22;27813;43.516;11.890;2023-09-19T10:27:49;27.70;63.40
42145;DHT22;27813;43.516;11.890;2023-09-19T10:31:55;28.10;62.50
42145;DHT22;27813;43.516;11.890;2023-09-19T10:36:05;28.20;61.90
42145;DHT22;27813;43.516;11.890;2023-09-19T10:40:09;28.10;61.60
42145;DHT22;27813;43.516;11.890;2023-09-19T10:44:18;28.00;61.80
42145;DHT22;27813;43.516;11.890;2023-09-19T10:48:24;27.90;62.10
42145;DHT22;27813;43.516;11.890;2023-09-19T10:52:29;27.90;62.10
42145;DHT22;27813;43.516;11.890;2023-09-19T10:56:37;28.00;61.70
42145;DHT22;27813;43.516;11.890;2023-09-19T11:00:58;28.00;61.30
42145;DHT22;27813;43.516;11.890;2023-09-19T11:09:59;28.40;61.00
42145;DHT22;27813;43.516;11.890;2023-09-19T11:27:14;28.40;59.30
42145;DHT22;27813;43.516;11.890;2023-09-19T11:31:43;28.10;59.10
42145;DHT22;27813;43.516;11.890;2023-09-19T11:36:15;27.90;59.40
42145;DHT22;27813;43.516;11.890;2023-09-19T11:40:19;27.90;59.40
42145;DHT22;27813;43.516;11.890;2023-09-19T11:48:30;27.90;59.20
42145;DHT22;27813;43.516;11.890;2023-09-19T11:52:35;27.90;59.20
42145;DHT22;27813;43.516;11.890;2023-09-19T11:56:40;28.00;59.10
42145;DHT22;27813;43.516;11.890;2023-09-19T12:00:45;28.20;58.90
42145;DHT22;27813;43.516;11.890;2023-09-19T12:04:53;28.50;58.20
42145;DHT22;27813;43.516;11.890;2023-09-19T12:08:57;28.60;57.90
42145;DHT22;27813;43.516;11.890;2023-09-19T12:13:03;28.70;57.60
42145;DHT22;27813;43.516;11.890;2023-09-19T12:17:09;28.60;57.50
42145;DHT22;27813;43.516;11.890;2023-09-19T12:21:23;28.80;57.20
42145;DHT22;27813;43.516;11.890;2023-09-19T12:25:44;28.70;56.90
42145;DHT22;27813;43.516;11.890;2023-09-19T12:29:50;28.70;56.80
42145;DHT22;27813;43.516;11.890;2023-09-19T12:33:59;28.70;56.60
42145;DHT22;27813;43.516;11.890;2023-09-19T12:38:05;28.80;56.70
42145;DHT22;27813;43.516;11.890;2023-09-19T12:42:24;28.70;56.50
42145;DHT22;27813;43.516;11.890;2023-09-19T12:46:32;28.50;56.60
42145;DHT22;27813;43.516;11.890;2023-09-19T12:51:08;28.30;56.70
42145;DHT22;27813;43.516;11.890;2023-09-19T12:55:34;28.30;56.70
42145;DHT22;27813;43.516;11.890;2023-09-19T12:59:43;28.20;56.80
42145;DHT22;27813;43.516;11.890;2023-09-19T13:04:15;28.10;56.70
42145;DHT22;27813;43.516;11.890;2023-09-19T13:08:34;28.30;56.20
42145;DHT22;27813;43.516;11.890;2023-09-19T13:12:43;28.50;55.80
42145;DHT22;27813;43.516;11.890;2023-09-19T13:17:05;28.50;55.30
42145;DHT22;27813;43.516;11.890;2023-09-19T13:21:31;28.60;54.80
42145;DHT22;27813;43.516;11.890;2023-09-19T13:25:46;28.60;54.30
42145;DHT22;27813;43.516;11.890;2023-09-19T13:29:51;28.70;53.60
42145;DHT22;27813;43.516;11.890;2023-09-19T13:33:55;28.80;53.10
42145;DHT22;27813;43.516;11.890;2023-09-19T13:37:59;28.90;52.40
42145;DHT22;27813;43.516;11.890;2023-09-19T13:42:05;29.00;51.70
42145;DHT22;27813;43.516;11.890;2023-09-19T13:46:21;29.00;51.20
42145;DHT22;27813;43.516;11.890;2023-09-19T13:50:30;28.80;50.80
42145;DHT22;27813;43.516;11.890;2023-09-19T13:54:34;28.80;50.70
42145;DHT22;27813;43.516;11.890;2023-09-19T13:58:38;28.70;50.60
42145;DHT22;27813;43.516;11.890;2023-09-19T14:02:43;28.50;50.50
42145;DHT22;27813;43.516;11.890;2023-09-19T14:06:49;28.40;50.70
42145;DHT22;27813;43.516;11.890;2023-09-19T14:10:53;28.70;50.70
42145;DHT22;27813;43.516;11.890;2023-09-19T14:14:57;29.20;49.60
42145;DHT22;27813;43.516;11.890;2023-09-19T14:19:01;29.50;48.60
42145;DHT22;27813;43.516;11.890;2023-09-19T14:23:05;29.50;48.00
42145;DHT22;27813;43.516;11.890;2023-09-19T14:27:10;29.30;47.30
42145;DHT22;27813;43.516;11.890;2023-09-19T14:31:14;29.10;47.10
42145;DHT22;27813;43.516;11.890;2023-09-19T14:35:18;29.00;46.70
42145;DHT22;27813;43.516;11.890;2023-09-19T14:39:22;28.90;46.40
42145;DHT22;27813;43.516;11.890;2023-09-19T14:43:26;28.80;46.00
42145;DHT22;27813;43.516;11.890;2023-09-19T14:47:33;28.70;46.00
42145;DHT22;27813;43.516;11.890;2023-09-19T14:51:40;28.50;46.10
42145;DHT22;27813;43.516;11.890;2023-09-19T14:55:44;28.50;46.40
42145;DHT22;27813;43.516;11.890;2023-09-19T14:59:51;28.40;46.60
42145;DHT22;27813;43.516;11.890;2023-09-19T15:03:55;28.30;46.80
42145;DHT22;27813;43.516;11.890;2023-09-19T15:07:59;28.20;47.10
42145;DHT22;27813;43.516;11.890;2023-09-19T15:12:03;28.10;47.10
42145;DHT22;27813;43.516;11.890;2023-09-19T15:16:08;28.00;47.10
42145;DHT22;27813;43.516;11.890;2023-09-19T15:20:12;27.90;47.30
42145;DHT22;27813;43.516;11.890;2023-09-19T15:24:17;27.80;47.50
42145;DHT22;27813;43.516;11.890;2023-09-19T15:28:21;27.60;47.90
42145;DHT22;27813;43.516;11.890;2023-09-19T15:32:26;27.40;48.40
42145;DHT22;27813;43.516;11.890;2023-09-19T15:36:30;27.30;48.60
42145;DHT22;27813;43.516;11.890;2023-09-19T15:40:34;27.20;48.70
42145;DHT22;27813;43.516;11.890;2023-09-19T15:44:38;27.20;48.80
42145;DHT22;27813;43.516;11.890;2023-09-19T15:48:42;27.10;48.80
42145;DHT22;27813;43.516;11.890;2023-09-19T15:52:46;27.00;48.80
42145;DHT22;27813;43.516;11.890;2023-09-19T15:56:51;27.00;49.00
42145;DHT22;27813;43.516;11.890;2023-09-19T16:00:55;26.70;49.30
42145;DHT22;27813;43.516;11.890;2023-09-19T16:05:00;26.50;49.70
42145;DHT22;27813;43.516;11.890;2023-09-19T16:09:04;26.40;49.90
42145;DHT22;27813;43.516;11.890;2023-09-19T16:13:09;26.20;50.20
42145;DHT22;27813;43.516;11.890;2023-09-19T16:17:13;26.10;50.40
42145;DHT22;27813;43.516;11.890;2023-09-19T16:21:18;26.00;50.50
42145;DHT22;27813;43.516;11.890;2023-09-19T16:25:25;26.00;50.70
42145;DHT22;27813;43.516;11.890;2023-09-19T16:29:29;25.90;50.80
42145;DHT22;27813;43.516;11.890;2023-09-19T16:33:38;25.80;51.10
42145;DHT22;27813;43.516;11.890;2023-09-19T16:37:45;25.60;51.20
42145;DHT22;27813;43.516;11.890;2023-09-19T16:41:50;25.50;51.40
42145;DHT22;27813;43.516;11.890;2023-09-19T16:46:02;25.40;51.70
42145;DHT22;27813;43.516;11.890;2023-09-19T16:50:09;25.20;52.00
42145;DHT22;27813;43.516;11.890;2023-09-19T16:54:14;25.00;52.30
42145;DHT22;27813;43.516;11.890;2023-09-19T16:58:18;24.80;52.60
42145;DHT22;27813;43.516;11.890;2023-09-19T17:02:22;24.60;52.90
42145;DHT22;27813;43.516;11.890;2023-09-19T17:06:26;24.40;53.10
42145;DHT22;27813;43.516;11.890;2023-09-19T17:10:33;24.20;53.40
42145;DHT22;27813;43.516;11.890;2023-09-19T17:14:42;24.10;53.60
42145;DHT22;27813;43.516;11.890;2023-09-19T17:18:54;23.80;53.90
42145;DHT22;27813;43.516;11.890;2023-09-19T17:23:00;23.60;54.30
42145;DHT22;27813;43.516;11.890;2023-09-19T17:27:04;23.40;54.80
42145;DHT22;27813;43.516;11.890;2023-09-19T17:31:12;23.10;55.30
42145;DHT22;27813;43.516;11.890;2023-09-19T17:35:19;22.90;55.60
42145;DHT22;27813;43.516;11.890;2023-09-19T17:39:23;22.70;55.90
42145;DHT22;27813;43.516;11.890;2023-09-19T17:43:30;22.50;56.30
42145;DHT22;27813;43.516;11.890;2023-09-19T17:47:35;22.40;56.50
42145;DHT22;27813;43.516;11.890;2023-09-19T17:51:41;22.20;56.90
42145;DHT22;27813;43.516;11.890;2023-09-19T17:55:45;22.00;57.10
42145;DHT22;27813;43.516;11.890;2023-09-19T17:59:50;22.00;57.30
42145;DHT22;27813;43.516;11.890;2023-09-19T18:03:55;21.90;57.40
42145;DHT22;27813;43.516;11.890;2023-09-19T18:08:04;21.70;57.70
42145;DHT22;27813;43.516;11.890;2023-09-19T18:12:08;21.50;58.00
42145;DHT22;27813;43.516;11.890;2023-09-19T18:16:12;21.30;58.50
42145;DHT22;27813;43.516;11.890;2023-09-19T18:20:16;21.10;59.00
42145;DHT22;27813;43.516;11.890;2023-09-19T18:24:23;20.90;59.50
42145;DHT22;27813;43.516;11.890;2023-09-19T18:28:26;20.70;59.80
42145;DHT22;27813;43.516;11.890;2023-09-19T18:32:30;20.40;60.40
42145;DHT22;27813;43.516;11.890;2023-09-19T18:36:36;20.20;60.90
42145;DHT22;27813;43.516;11.890;2023-09-19T18:40:44;20.00;61.40
42145;DHT22;27813;43.516;11.890;2023-09-19T18:44:48;19.80;61.90
42145;DHT22;27813;43.516;11.890;2023-09-19T18:48:52;19.50;62.40
42145;DHT22;27813;43.516;11.890;2023-09-19T18:52:58;19.40;62.90
42145;DHT22;27813;43.516;11.890;2023-09-19T18:57:03;19.30;63.30
42145;DHT22;27813;43.516;11.890;2023-09-19T19:01:08;19.20;63.50
42145;DHT22;27813;43.516;11.890;2023-09-19T19:05:13;19.00;63.80
42145;DHT22;27813;43.516;11.890;2023-09-19T19:09:20;18.90;64.40
42145;DHT22;27813;43.516;11.890;2023-09-19T19:13:24;18.90;64.60
42145;DHT22;27813;43.516;11.890;2023-09-19T19:17:28;18.80;64.60
42145;DHT22;27813;43.516;11.890;2023-09-19T19:21:35;18.70;64.90
42145;DHT22;27813;43.516;11.890;2023-09-19T19:25:46;18.60;65.20
42145;DHT22;27813;43.516;11.890;2023-09-19T19:29:51;18.50;65.50
42145;DHT22;27813;43.516;11.890;2023-09-19T19:33:56;18.40;65.70
42145;DHT22;27813;43.516;11.890;2023-09-19T19:38:01;18.40;65.90
42145;DHT22;27813;43.516;11.890;2023-09-19T19:42:07;18.30;66.20
42145;DHT22;27813;43.516;11.890;2023-09-19T19:46:15;18.30;66.40
42145;DHT22;27813;43.516;11.890;2023-09-19T19:50:20;18.30;66.60
42145;DHT22;27813;43.516;11.890;2023-09-19T19:54:24;18.30;67.00
42145;DHT22;27813;43.516;11.890;2023-09-19T19:58:30;18.20;67.00
42145;DHT22;27813;43.516;11.890;2023-09-19T20:02:35;18.20;67.20
42145;DHT22;27813;43.516;11.890;2023-09-19T20:06:43;18.20;67.20
42145;DHT22;27813;43.516;11.890;2023-09-19T20:10:52;18.20;67.50
42145;DHT22;27813;43.516;11.890;2023-09-19T20:14:57;18.20;67.60
42145;DHT22;27813;43.516;11.890;2023-09-19T20:19:03;18.10;67.80
42145;DHT22;27813;43.516;11.890;2023-09-19T20:23:10;18.00;68.00
42145;DHT22;27813;43.516;11.890;2023-09-19T20:27:18;18.00;68.20
42145;DHT22;27813;43.516;11.890;2023-09-19T20:31:25;18.00;68.50
42145;DHT22;27813;43.516;11.890;2023-09-19T20:35:30;18.00;68.60
42145;DHT22;27813;43.516;11.890;2023-09-19T20:39:37;17.90;68.70
42145;DHT22;27813;43.516;11.890;2023-09-19T20:43:41;17.90;69.00
42145;DHT22;27813;43.516;11.890;2023-09-19T20:47:49;17.90;69.10
42145;DHT22;27813;43.516;11.890;2023-09-19T20:51:57;17.80;69.40
42145;DHT22;27813;43.516;11.890;2023-09-19T20:56:05;17.70;69.60
42145;DHT22;27813;43.516;11.890;2023-09-19T21:00:15;17.70;69.80
42145;DHT22;27813;43.516;11.890;2023-09-19T21:04:23;17.60;70.10
42145;DHT22;27813;43.516;11.890;2023-09-19T21:08:40;17.60;70.20
42145;DHT22;27813;43.516;11.890;2023-09-19T21:12:54;17.50;70.40
42145;DHT22;27813;43.516;11.890;2023-09-19T21:16:59;17.50;70.70
42145;DHT22;27813;43.516;11.890;2023-09-19T21:21:09;17.50;70.90
42145;DHT22;27813;43.516;11.890;2023-09-19T21:25:17;17.40;71.20
42145;DHT22;27813;43.516;11.890;2023-09-19T21:29:28;17.40;71.30
42145;DHT22;27813;43.516;11.890;2023-09-19T21:33:40;17.30;71.50
42145;DHT22;27813;43.516;11.890;2023-09-19T21:37:49;17.20;71.70
42145;DHT22;27813;43.516;11.890;2023-09-19T21:41:54;17.10;72.00
42145;DHT22;27813;43.516;11.890;2023-09-19T21:45:58;17.00;72.30
42145;DHT22;27813;43.516;11.890;2023-09-19T21:50:02;17.00;72.40
42145;DHT22;27813;43.516;11.890;2023-09-19T21:54:07;16.80;72.60
42145;DHT22;27813;43.516;11.890;2023-09-19T21:58:12;16.70;72.90
42145;DHT22;27813;43.516;11.890;2023-09-19T22:02:16;16.60;73.10
42145;DHT22;27813;43.516;11.890;2023-09-19T22:06:20;16.50;73.50
42145;DHT22;27813;43.516;11.890;2023-09-19T22:10:24;16.40;73.70
42145;DHT22;27813;43.516;11.890;2023-09-19T22:14:29;16.40;74.10
42145;DHT22;27813;43.516;11.890;2023-09-19T22:18:34;16.30;74.30
42145;DHT22;27813;43.516;11.890;2023-09-19T22:22:38;16.20;74.40
42145;DHT22;27813;43.516;11.890;2023-09-19T22:26:42;16.10;74.60
42145;DHT22;27813;43.516;11.890;2023-09-19T22:30:49;16.00;74.80
42145;DHT22;27813;43.516;11.890;2023-09-19T22:34:53;15.90;75.00
42145;DHT22;27813;43.516;11.890;2023-09-19T22:38:58;15.80;75.20
42145;DHT22;27813;43.516;11.890;2023-09-19T22:43:07;15.70;75.20
42145;DHT22;27813;43.516;11.890;2023-09-19T22:47:13;15.70;75.50
42145;DHT22;27813;43.516;11.890;2023-09-19T22:51:17;15.60;75.80
42145;DHT22;27813;43.516;11.890;2023-09-19T22:55:26;15.50;76.10
42145;DHT22;27813;43.516;11.890;2023-09-19T22:59:34;15.40;76.10
42145;DHT22;27813;43.516;11.890;2023-09-19T23:03:39;15.30;76.30
42145;DHT22;27813;43.516;11.890;2023-09-19T23:07:50;15.20;76.50
42145;DHT22;27813;43.516;11.890;2023-09-19T23:12:03;15.20;76.80
42145;DHT22;27813;43.516;11.890;2023-09-19T23:16:15;15.10;77.10
42145;DHT22;27813;43.516;11.890;2023-09-19T23:20:22;15.00;77.10
42145;DHT22;27813;43.516;11.890;2023-09-19T23:24:31;15.00;77.30
42145;DHT22;27813;43.516;11.890;2023-09-19T23:28:39;14.80;77.60
